createdAt,value
2023-05-14T00:00:40.926Z,21.16
2023-05-14T00:03:07.639Z,21.08
2023-05-14T00:05:34.331Z,21.06
2023-05-14T00:08:00.959Z,21.07
2023-05-14T00:10:27.873Z,21.08
2023-05-14T00:12:54.411Z,21.05
2023-05-14T00:15:20.937Z,21.15
2023-05-14T00:17:47.523Z,21.18
2023-05-14T00:20:14.118Z,21.19
2023-05-14T00:22:40.856Z,21.18
2023-05-14T00:25:08.394Z,21.18
2023-05-14T00:27:36.059Z,21.15
2023-05-14T00:30:02.809Z,21.14
2023-05-14T00:32:29.336Z,21.01
2023-05-14T00:34:55.849Z,21.06
2023-05-14T00:37:22.370Z,21.08
2023-05-14T00:39:48.868Z,21.08
2023-05-14T00:42:15.423Z,21.12
2023-05-14T00:44:41.918Z,21.09
2023-05-14T00:47:08.754Z,21.06
2023-05-14T00:49:35.571Z,21.08
2023-05-14T00:52:02.283Z,21.08
2023-05-14T00:54:29.658Z,21.10
2023-05-14T00:56:56.233Z,21.07
2023-05-14T00:59:22.852Z,21.07
2023-05-14T01:01:49.470Z,21.02
2023-05-14T01:04:16.242Z,20.95
2023-05-14T01:07:08.857Z,21.22
2023-05-14T01:09:56.274Z,21.19
2023-05-14T01:13:00.620Z,21.15
2023-05-14T01:15:31.806Z,20.98
2023-05-14T01:18:03.912Z,20.94
2023-05-14T01:20:30.559Z,20.79
2023-05-14T01:22:57.402Z,20.74
2023-05-14T01:25:23.924Z,20.68
2023-05-14T01:28:12.124Z,20.70
2023-05-14T01:30:57.982Z,20.67
2023-05-14T01:33:26.202Z,20.57
2023-05-14T01:35:53.752Z,20.51
2023-05-14T01:38:20.764Z,20.45
2023-05-14T01:40:48.142Z,20.41
2023-05-14T01:43:15.722Z,20.40
2023-05-14T01:45:42.613Z,20.39
2023-05-14T01:48:09.372Z,20.40
2023-05-14T01:50:35.963Z,20.41
2023-05-14T01:53:02.952Z,20.42
2023-05-14T01:55:29.460Z,20.38
2023-05-14T01:57:56.046Z,20.35
2023-05-14T02:00:24.319Z,20.33
2023-05-14T02:02:51.246Z,20.29
2023-05-14T02:05:17.853Z,20.29
2023-05-14T02:07:44.362Z,20.17
2023-05-14T02:10:11.329Z,20.16
2023-05-14T02:12:38.009Z,20.13
2023-05-14T02:15:05.023Z,20.11
2023-05-14T02:17:32.246Z,20.14
2023-05-14T02:19:58.840Z,20.11
2023-05-14T02:22:25.402Z,20.13
2023-05-14T02:24:52.480Z,20.11
2023-05-14T02:27:19.027Z,20.12
2023-05-14T02:29:45.540Z,20.13
2023-05-14T02:32:12.064Z,20.14
2023-05-14T02:34:39.096Z,20.13
2023-05-14T02:37:05.642Z,20.16
2023-05-14T02:39:32.202Z,20.21
2023-05-14T02:41:58.705Z,20.25
2023-05-14T02:44:25.225Z,20.22
2023-05-14T02:46:51.778Z,20.21
2023-05-14T02:49:18.357Z,20.22
2023-05-14T02:51:44.845Z,20.24
2023-05-14T02:54:11.461Z,20.27
2023-05-14T02:56:38.112Z,20.31
2023-05-14T02:59:04.635Z,20.38
2023-05-14T03:01:31.887Z,20.45
2023-05-14T03:03:59.204Z,20.48
2023-05-14T03:06:25.890Z,20.49
2023-05-14T03:08:52.514Z,20.49
2023-05-14T03:11:19.045Z,20.54
2023-05-14T03:13:45.588Z,20.58
2023-05-14T03:16:12.160Z,20.58
2023-05-14T03:18:38.667Z,20.59
2023-05-14T03:21:05.198Z,20.62
2023-05-14T03:23:34.873Z,20.65
2023-05-14T03:26:02.149Z,20.65
2023-05-14T03:28:28.666Z,20.71
2023-05-14T03:30:55.279Z,20.77
2023-05-14T03:33:22.682Z,20.82
2023-05-14T03:35:49.378Z,20.88
2023-05-14T03:38:15.889Z,20.91
2023-05-14T03:40:44.217Z,20.94
2023-05-14T03:43:11.337Z,20.99
2023-05-14T03:45:37.942Z,21.09
2023-05-14T03:48:04.804Z,21.16
2023-05-14T03:50:32.484Z,21.21
2023-05-14T03:52:59.011Z,21.24
2023-05-14T03:55:25.712Z,21.27
2023-05-14T03:57:52.279Z,21.33
2023-05-14T04:00:18.950Z,21.33
2023-05-14T04:02:45.658Z,21.33
2023-05-14T04:05:12.250Z,21.33
2023-05-14T04:07:38.768Z,21.32
2023-05-14T04:10:05.775Z,21.30
2023-05-14T04:12:34.720Z,21.30
2023-05-14T04:15:01.486Z,21.24
2023-05-14T04:17:28.054Z,21.21
2023-05-14T04:19:54.554Z,21.22
2023-05-14T04:22:21.107Z,21.20
2023-05-14T04:24:47.604Z,21.17
2023-05-14T04:27:23.836Z,21.29
2023-05-14T04:29:50.545Z,21.17
2023-05-14T04:32:17.769Z,21.20
2023-05-14T04:34:44.315Z,21.20
2023-05-14T04:37:10.821Z,21.21
2023-05-14T04:39:38.389Z,21.25
2023-05-14T04:42:05.490Z,21.26
2023-05-14T04:44:31.996Z,21.28
2023-05-14T04:46:58.509Z,21.32
2023-05-14T04:49:25.011Z,21.36
2023-05-14T04:51:51.537Z,21.37
2023-05-14T04:54:18.083Z,21.42
2023-05-14T04:56:44.820Z,21.46
2023-05-14T04:59:11.336Z,21.52
2023-05-14T05:01:37.881Z,21.59
2023-05-14T05:04:04.525Z,21.63
2023-05-14T05:06:31.615Z,21.66
2023-05-14T05:08:59.520Z,21.72
2023-05-14T05:11:27.077Z,21.81
2023-05-14T05:13:53.614Z,21.91
2023-05-14T05:16:20.155Z,21.99
2023-05-14T05:18:46.715Z,22.06
2023-05-14T05:21:13.264Z,22.08
2023-05-14T05:23:39.820Z,22.15
2023-05-14T05:26:06.322Z,22.18
2023-05-14T05:28:32.852Z,22.29
2023-05-14T05:30:59.381Z,22.36
2023-05-14T05:33:26.037Z,22.43
2023-05-14T05:35:52.550Z,22.52
2023-05-14T05:38:19.096Z,22.56
2023-05-14T05:40:45.593Z,22.67
2023-05-14T05:43:13.881Z,22.76
2023-05-14T05:45:41.482Z,22.85
2023-05-14T05:48:08.053Z,22.98
2023-05-14T05:50:34.605Z,23.06
2023-05-14T05:53:01.184Z,23.19
2023-05-14T05:55:28.710Z,23.26
2023-05-14T05:57:55.313Z,23.34
2023-05-14T06:00:22.224Z,23.42
2023-05-14T06:02:49.138Z,23.57
2023-05-14T06:05:15.833Z,23.72
2023-05-14T06:07:42.409Z,23.82
2023-05-14T06:10:09.026Z,23.99
2023-05-14T06:12:35.544Z,24.05
2023-05-14T06:15:02.061Z,24.25
2023-05-14T06:17:28.593Z,24.41
2023-05-14T06:19:55.140Z,24.58
2023-05-14T06:22:21.634Z,24.77
2023-05-14T06:24:49.255Z,24.98
2023-05-14T06:27:15.776Z,25.13
2023-05-14T06:29:42.287Z,25.01
2023-05-14T06:32:09.038Z,25.03
2023-05-14T06:34:35.542Z,25.15
2023-05-14T06:37:04.212Z,25.19
2023-05-14T06:39:31.026Z,25.19
2023-05-14T06:41:57.566Z,25.22
2023-05-14T06:44:24.232Z,25.23
2023-05-14T06:46:50.697Z,25.27
2023-05-14T06:49:17.286Z,25.05
2023-05-14T06:51:43.831Z,24.90
2023-05-14T06:54:10.349Z,25.04
2023-05-14T06:56:36.899Z,25.05
2023-05-14T06:59:03.495Z,24.99
2023-05-14T07:01:30.625Z,25.02
2023-05-14T07:03:57.290Z,24.94
2023-05-14T07:06:23.995Z,25.03
2023-05-14T07:08:50.560Z,25.07
2023-05-14T07:11:17.124Z,25.16
2023-05-14T07:13:43.625Z,25.27
2023-05-14T07:16:10.335Z,25.40
2023-05-14T07:18:36.985Z,25.52
2023-05-14T07:21:06.488Z,25.55
2023-05-14T07:23:36.128Z,25.66
2023-05-14T07:26:03.331Z,25.76
2023-05-14T07:28:29.825Z,25.93
2023-05-14T07:30:56.350Z,26.05
2023-05-14T07:33:23.055Z,26.19
2023-05-14T07:35:49.627Z,26.34
2023-05-14T07:38:16.272Z,26.40
2023-05-14T07:40:43.488Z,26.51
2023-05-14T07:43:10.333Z,26.70
2023-05-14T07:45:37.933Z,26.84
2023-05-14T07:48:04.703Z,27.01
2023-05-14T07:50:31.404Z,27.20
2023-05-14T07:52:57.898Z,27.38
2023-05-14T07:55:24.589Z,27.49
2023-05-14T07:57:51.078Z,27.51
2023-05-14T08:00:18.057Z,27.51
2023-05-14T08:02:44.798Z,27.50
2023-05-14T08:05:11.486Z,27.72
2023-05-14T08:07:38.029Z,27.79
2023-05-14T08:10:04.809Z,27.93
2023-05-14T08:12:31.739Z,28.00
2023-05-14T08:14:58.252Z,28.21
2023-05-14T08:17:24.798Z,28.55
2023-05-14T08:19:51.351Z,28.74
2023-05-14T08:22:17.883Z,28.64
2023-05-14T08:24:44.421Z,28.62
2023-05-14T08:27:10.956Z,28.66
2023-05-14T08:29:37.489Z,29.03
2023-05-14T08:32:15.604Z,29.08
2023-05-14T08:34:48.953Z,29.18
2023-05-14T08:37:15.537Z,29.37
2023-05-14T08:39:42.017Z,29.33
2023-05-14T08:42:09.738Z,29.38
2023-05-14T08:44:42.709Z,29.44
2023-05-14T08:47:09.489Z,29.65
2023-05-14T08:49:41.612Z,29.92
2023-05-14T08:52:11.516Z,29.88
2023-05-14T08:54:38.481Z,29.82
2023-05-14T08:57:05.759Z,30.06
2023-05-14T08:59:32.332Z,30.34
2023-05-14T09:02:02.159Z,30.75
2023-05-14T09:04:29.660Z,30.88
2023-05-14T09:06:56.216Z,30.85
2023-05-14T09:09:23.245Z,30.93
2023-05-14T09:11:51.110Z,30.85
2023-05-14T09:14:17.852Z,30.99
2023-05-14T09:16:45.977Z,31.05
2023-05-14T09:19:13.724Z,31.21
2023-05-14T09:21:40.701Z,31.48
2023-05-14T09:24:07.635Z,31.85
2023-05-14T09:26:34.895Z,32.05
2023-05-14T09:29:02.757Z,32.20
2023-05-14T09:31:33.618Z,32.17
2023-05-14T09:34:00.684Z,32.14
2023-05-14T09:36:27.410Z,32.32
2023-05-14T09:38:56.783Z,32.54
2023-05-14T09:41:23.393Z,32.25
2023-05-14T09:43:51.471Z,32.09
2023-05-14T09:46:18.287Z,32.36
2023-05-14T09:48:46.033Z,32.63
2023-05-14T09:51:13.182Z,32.69
2023-05-14T09:53:41.296Z,32.88
2023-05-14T09:56:07.758Z,32.97
2023-05-14T09:58:34.342Z,33.10
2023-05-14T10:01:01.747Z,32.97
2023-05-14T10:03:30.029Z,32.87
2023-05-14T10:05:58.747Z,32.77
2023-05-14T10:08:28.101Z,32.50
2023-05-14T10:10:55.873Z,32.08
2023-05-14T10:13:24.488Z,31.81
2023-05-14T10:16:02.679Z,31.49
2023-05-14T10:18:31.375Z,30.93
2023-05-14T10:21:04.349Z,30.72
2023-05-14T10:23:31.168Z,30.15
2023-05-14T10:26:00.779Z,29.71
2023-05-14T10:28:27.940Z,29.37
2023-05-14T10:30:54.772Z,29.24
2023-05-14T10:33:21.306Z,29.17
2023-05-14T10:35:58.337Z,29.20
2023-05-14T10:38:29.735Z,29.01
2023-05-14T10:40:57.992Z,28.71
2023-05-14T10:43:27.900Z,28.71
2023-05-14T10:45:54.537Z,28.58
2023-05-14T10:48:21.419Z,28.48
2023-05-14T10:50:48.581Z,28.19
2023-05-14T10:53:15.667Z,28.21
2023-05-14T10:55:43.061Z,28.05
2023-05-14T10:58:11.078Z,28.07
2023-05-14T11:00:38.105Z,27.90
2023-05-14T11:03:09.173Z,27.98
2023-05-14T11:05:37.334Z,27.97
2023-05-14T11:08:06.313Z,28.01
2023-05-14T11:10:32.870Z,27.97
2023-05-14T11:12:59.541Z,27.93
2023-05-14T11:15:26.677Z,27.87
2023-05-14T11:17:53.801Z,27.93
2023-05-14T11:20:20.794Z,27.99
2023-05-14T11:22:48.939Z,28.03
2023-05-14T11:25:15.650Z,28.02
2023-05-14T11:27:46.793Z,28.09
2023-05-14T11:30:13.287Z,28.49
2023-05-14T11:32:40.840Z,27.76
2023-05-14T11:35:07.651Z,27.85
2023-05-14T11:37:34.157Z,27.80
2023-05-14T11:40:01.585Z,27.78
2023-05-14T11:42:28.218Z,27.72
2023-05-14T11:44:54.744Z,27.89
2023-05-14T11:47:21.866Z,28.12
2023-05-14T11:49:48.912Z,28.13
2023-05-14T11:52:16.626Z,28.30
2023-05-14T11:54:44.113Z,28.56
2023-05-14T11:57:15.703Z,28.94
2023-05-14T11:59:42.360Z,29.07
2023-05-14T12:02:12.041Z,29.20
2023-05-14T12:04:38.880Z,29.22
2023-05-14T12:07:13.089Z,29.38
2023-05-14T12:09:50.553Z,29.27
2023-05-14T12:12:22.033Z,29.33
2023-05-14T12:14:49.612Z,29.18
2023-05-14T12:17:16.977Z,29.10
2023-05-14T12:19:44.977Z,28.99
2023-05-14T12:22:12.708Z,28.89
2023-05-14T12:24:39.416Z,28.79
2023-05-14T12:27:07.057Z,28.84
2023-05-14T12:29:39.691Z,28.92
2023-05-14T12:32:10.002Z,28.86
2023-05-14T12:34:37.964Z,28.92
2023-05-14T12:37:05.593Z,29.00
2023-05-14T12:39:33.768Z,29.18
2023-05-14T12:42:00.446Z,29.27
2023-05-14T12:44:27.044Z,29.39
2023-05-14T12:46:53.783Z,29.53
2023-05-14T12:49:20.435Z,29.68
2023-05-14T12:51:47.029Z,29.82
2023-05-14T12:54:15.754Z,29.96
2023-05-14T12:56:42.589Z,29.89
2023-05-14T12:59:09.561Z,30.02
2023-05-14T13:01:37.672Z,30.09
2023-05-14T13:04:05.392Z,30.14
2023-05-14T13:06:32.345Z,30.22
2023-05-14T13:09:00.231Z,30.22
2023-05-14T13:11:29.512Z,30.22
2023-05-14T13:13:56.076Z,30.18
2023-05-14T13:16:22.710Z,30.15
2023-05-14T13:18:49.262Z,29.91
2023-05-14T13:21:15.773Z,29.79
2023-05-14T13:23:42.294Z,29.67
2023-05-14T13:26:08.837Z,29.60
2023-05-14T13:28:35.526Z,29.56
2023-05-14T13:31:06.080Z,29.61
2023-05-14T13:33:34.360Z,29.46
2023-05-14T13:36:00.871Z,29.37
2023-05-14T13:38:27.418Z,29.39
2023-05-14T13:40:54.363Z,29.35
2023-05-14T13:43:21.003Z,29.40
2023-05-14T13:45:47.672Z,29.57
2023-05-14T13:48:14.255Z,29.68
2023-05-14T13:50:40.822Z,29.79
2023-05-14T13:53:07.346Z,29.73
2023-05-14T13:55:33.933Z,29.65
2023-05-14T13:58:01.799Z,29.50
2023-05-14T14:00:28.270Z,29.26
2023-05-14T14:02:54.801Z,29.10
2023-05-14T14:05:21.536Z,28.97
2023-05-14T14:07:49.755Z,28.94
2023-05-14T14:10:17.015Z,28.83
2023-05-14T14:12:43.561Z,28.71
2023-05-14T14:15:10.686Z,28.63
2023-05-14T14:17:38.929Z,28.56
2023-05-14T14:20:06.552Z,28.48
2023-05-14T14:22:33.132Z,28.43
2023-05-14T14:24:59.718Z,28.42
2023-05-14T14:27:26.325Z,28.41
2023-05-14T14:29:53.060Z,28.42
2023-05-14T14:32:20.353Z,28.41
2023-05-14T14:34:46.844Z,28.44
2023-05-14T14:37:13.427Z,28.47
2023-05-14T14:39:40.331Z,28.46
2023-05-14T14:42:07.015Z,28.42
2023-05-14T14:44:33.575Z,28.39
2023-05-14T14:47:00.160Z,28.43
2023-05-14T14:49:27.743Z,28.44
2023-05-14T14:51:54.360Z,28.45
2023-05-14T14:54:20.929Z,28.44
2023-05-14T14:56:49.196Z,28.50
2023-05-14T14:59:15.825Z,28.60
2023-05-14T15:01:42.515Z,28.72
2023-05-14T15:04:09.073Z,28.74
2023-05-14T15:06:35.663Z,28.82
2023-05-14T15:09:02.458Z,28.90
2023-05-14T15:11:29.108Z,29.01
2023-05-14T15:13:55.612Z,29.19
2023-05-14T15:16:22.155Z,29.30
2023-05-14T15:18:48.697Z,29.33
2023-05-14T15:21:15.297Z,29.29
2023-05-14T15:23:41.806Z,29.32
2023-05-14T15:26:08.333Z,29.29
2023-05-14T15:28:34.843Z,29.27
2023-05-14T15:31:02.567Z,29.17
2023-05-14T15:33:29.090Z,29.04
2023-05-14T15:35:55.599Z,28.86
2023-05-14T15:38:22.087Z,28.96
2023-05-14T15:40:50.794Z,28.87
2023-05-14T15:43:17.339Z,28.97
2023-05-14T15:45:44.803Z,28.99
2023-05-14T15:48:11.379Z,29.08
2023-05-14T15:50:38.511Z,29.09
2023-05-14T15:53:05.045Z,29.16
2023-05-14T15:55:31.630Z,29.02
2023-05-14T15:57:58.122Z,29.07
2023-05-14T16:00:25.126Z,29.04
2023-05-14T16:02:52.266Z,29.07
2023-05-14T16:05:19.103Z,29.04
2023-05-14T16:07:45.583Z,28.99
2023-05-14T16:10:12.119Z,28.91
2023-05-14T16:12:38.633Z,28.82
2023-05-14T16:15:06.899Z,28.80
2023-05-14T16:17:34.334Z,28.71
2023-05-14T16:20:01.274Z,28.64
2023-05-14T16:22:29.297Z,28.65
2023-05-14T16:24:56.003Z,28.50
2023-05-14T16:27:22.540Z,28.38
2023-05-14T16:29:49.048Z,28.26
2023-05-14T16:32:15.587Z,28.18
2023-05-14T16:34:47.353Z,28.05
2023-05-14T16:37:15.035Z,27.98
2023-05-14T16:39:41.527Z,27.91
2023-05-14T16:42:08.032Z,27.91
2023-05-14T16:44:34.757Z,27.85
2023-05-14T16:47:01.468Z,27.79
2023-05-14T16:49:27.969Z,27.69
2023-05-14T16:51:54.481Z,27.70
2023-05-14T16:54:21.091Z,27.68
2023-05-14T16:56:48.303Z,27.59
2023-05-14T16:59:15.748Z,27.47
2023-05-14T17:01:42.939Z,27.45
2023-05-14T17:04:10.131Z,27.48
2023-05-14T17:06:36.956Z,27.49
2023-05-14T17:09:03.731Z,27.50
2023-05-14T17:11:30.273Z,27.50
2023-05-14T17:13:57.293Z,27.49
2023-05-14T17:16:24.212Z,27.43
2023-05-14T17:18:50.979Z,27.41
2023-05-14T17:21:17.521Z,27.42
2023-05-14T17:23:44.028Z,27.29
2023-05-14T17:26:12.058Z,27.31
2023-05-14T17:28:38.590Z,27.32
2023-05-14T17:31:05.113Z,27.31
2023-05-14T17:33:31.702Z,27.27
2023-05-14T17:35:58.539Z,27.29
2023-05-14T17:38:25.396Z,27.18
2023-05-14T17:40:51.865Z,27.16
2023-05-14T17:43:18.757Z,27.10
2023-05-14T17:45:53.814Z,27.03
2023-05-14T17:48:22.084Z,27.00
2023-05-14T17:50:48.633Z,27.01
2023-05-14T17:53:15.167Z,27.00
2023-05-14T17:55:43.618Z,26.96
2023-05-14T17:58:15.234Z,27.06
2023-05-14T18:00:42.023Z,26.95
2023-05-14T18:03:08.718Z,26.90
2023-05-14T18:05:35.289Z,26.85
2023-05-14T18:08:01.951Z,26.83
2023-05-14T18:10:29.650Z,26.83
2023-05-14T18:12:56.652Z,26.84
2023-05-14T18:15:25.430Z,26.72
2023-05-14T18:17:52.625Z,26.70
2023-05-14T18:20:19.431Z,26.66
2023-05-14T18:22:45.975Z,26.69
2023-05-14T18:25:13.679Z,26.68
2023-05-14T18:27:44.506Z,26.68
2023-05-14T18:30:12.113Z,27.32
2023-05-14T18:32:38.810Z,26.69
2023-05-14T18:35:07.864Z,26.53
2023-05-14T18:37:35.288Z,26.57
2023-05-14T18:40:07.125Z,26.62
2023-05-14T18:42:34.183Z,26.46
2023-05-14T18:45:01.418Z,26.44
2023-05-14T18:47:27.956Z,26.43
2023-05-14T18:49:55.813Z,26.42
2023-05-14T18:52:22.871Z,26.41
2023-05-14T18:54:50.820Z,26.41
2023-05-14T18:57:17.427Z,26.36
2023-05-14T18:59:43.966Z,26.31
2023-05-14T19:02:10.859Z,26.25
2023-05-14T19:04:50.740Z,26.23
2023-05-14T19:07:18.975Z,26.20
2023-05-14T19:09:45.564Z,26.14
2023-05-14T19:12:12.493Z,26.03
2023-05-14T19:14:39.205Z,25.96
2023-05-14T19:17:05.850Z,25.89
2023-05-14T19:19:32.643Z,25.82
2023-05-14T19:21:59.196Z,25.78
2023-05-14T19:24:25.853Z,25.70
2023-05-14T19:26:52.486Z,25.62
2023-05-14T19:29:19.034Z,25.54
2023-05-14T19:31:45.579Z,25.46
2023-05-14T19:34:12.142Z,25.34
2023-05-14T19:36:38.671Z,25.26
2023-05-14T19:39:05.221Z,25.19
2023-05-14T19:41:31.725Z,25.03
2023-05-14T19:43:58.252Z,24.93
2023-05-14T19:46:24.822Z,24.83
2023-05-14T19:48:51.387Z,24.71
2023-05-14T19:51:18.029Z,24.64
2023-05-14T19:53:45.160Z,24.56
2023-05-14T19:56:11.760Z,24.46
2023-05-14T19:58:38.248Z,24.35
2023-05-14T20:01:04.889Z,24.22
2023-05-14T20:03:32.197Z,24.16
2023-05-14T20:05:58.966Z,24.09
2023-05-14T20:08:25.462Z,24.03
2023-05-14T20:10:52.065Z,23.97
2023-05-14T20:13:18.581Z,23.89
2023-05-14T20:15:45.263Z,23.80
2023-05-14T20:18:11.810Z,23.64
2023-05-14T20:20:39.378Z,23.51
2023-05-14T20:23:06.165Z,23.48
2023-05-14T20:25:33.235Z,23.40
2023-05-14T20:28:02.781Z,23.38
2023-05-14T20:30:29.361Z,23.29
2023-05-14T20:32:56.113Z,23.29
2023-05-14T20:35:23.244Z,23.27
2023-05-14T20:37:50.120Z,23.28
2023-05-14T20:40:16.707Z,23.24
2023-05-14T20:42:43.352Z,23.23
2023-05-14T20:45:10.421Z,23.23
2023-05-14T20:47:37.010Z,23.21
2023-05-14T20:50:04.672Z,23.17
2023-05-14T20:52:31.335Z,23.09
2023-05-14T20:55:00.110Z,23.09
2023-05-14T20:57:28.300Z,23.13
2023-05-14T20:59:54.822Z,23.08
2023-05-14T21:02:21.526Z,23.06
2023-05-14T21:04:48.217Z,23.08
2023-05-14T21:07:14.831Z,23.11
2023-05-14T21:09:41.430Z,23.08
2023-05-14T21:12:08.301Z,23.06
2023-05-14T21:14:34.815Z,23.07
2023-05-14T21:17:01.370Z,23.07
2023-05-14T21:19:27.865Z,23.08
2023-05-14T21:21:54.404Z,23.10
2023-05-14T21:24:20.872Z,23.10
2023-05-14T21:26:47.452Z,23.13
2023-05-14T21:29:13.938Z,23.11
2023-05-14T21:31:40.857Z,23.10
2023-05-14T21:34:07.429Z,23.12
2023-05-14T21:36:34.031Z,23.16
2023-05-14T21:39:00.558Z,23.15
2023-05-14T21:41:27.081Z,23.16
2023-05-14T21:43:53.552Z,23.15
2023-05-14T21:46:20.099Z,23.14
2023-05-14T21:48:46.747Z,23.12
2023-05-14T21:51:13.389Z,23.10
2023-05-14T21:53:39.894Z,23.04
2023-05-14T21:56:07.098Z,23.02
2023-05-14T21:58:33.826Z,22.93
2023-05-14T22:01:00.371Z,22.90
2023-05-14T22:03:26.935Z,22.86
2023-05-14T22:05:53.504Z,22.77
2023-05-14T22:08:20.097Z,22.71
2023-05-14T22:10:47.112Z,22.66
2023-05-14T22:13:13.973Z,22.54
2023-05-14T22:15:40.809Z,22.49
2023-05-14T22:18:07.405Z,22.44
2023-05-14T22:20:33.951Z,22.38
2023-05-14T22:23:00.560Z,22.33
2023-05-14T22:25:27.366Z,22.28
2023-05-14T22:27:54.066Z,22.19
2023-05-14T22:30:21.111Z,22.09
2023-05-14T22:32:47.898Z,21.99
2023-05-14T22:35:14.477Z,21.95
2023-05-14T22:37:40.997Z,21.92
2023-05-14T22:40:08.809Z,21.92
2023-05-14T22:42:35.400Z,21.87
2023-05-14T22:45:01.924Z,21.86
2023-05-14T22:47:28.482Z,21.86
2023-05-14T22:49:55.003Z,21.82
2023-05-14T22:52:21.526Z,21.82
2023-05-14T22:54:50.912Z,21.84
2023-05-14T22:57:17.799Z,21.81
2023-05-14T22:59:44.461Z,21.83
2023-05-14T23:02:11.064Z,21.85
2023-05-14T23:04:37.814Z,21.84
2023-05-14T23:07:04.523Z,21.84
2023-05-14T23:09:31.086Z,21.80
2023-05-14T23:11:57.614Z,21.80
2023-05-14T23:14:24.179Z,21.79
2023-05-14T23:16:50.710Z,21.75
2023-05-14T23:19:17.351Z,21.72
2023-05-14T23:21:43.888Z,21.70
2023-05-14T23:24:10.401Z,21.61
2023-05-14T23:26:36.869Z,21.60
2023-05-14T23:29:03.383Z,21.56
2023-05-14T23:31:29.961Z,21.55
2023-05-14T23:33:57.051Z,21.54
2023-05-14T23:36:23.581Z,21.56
2023-05-14T23:38:50.314Z,21.51
2023-05-14T23:41:16.829Z,21.48
2023-05-14T23:43:43.331Z,21.49
2023-05-14T23:46:09.868Z,21.47
2023-05-14T23:48:36.504Z,21.46
2023-05-14T23:51:03.111Z,21.46
2023-05-14T23:53:29.654Z,21.44
2023-05-14T23:55:56.512Z,21.40
2023-05-14T23:58:23.054Z,21.36
